createdAt,value
2022-11-29T00:01:55.101Z,22.10
2022-11-29T00:04:25.099Z,25.50
2022-11-29T00:06:54.938Z,20.45
2022-11-29T00:09:25.049Z,17.63
2022-11-29T00:12:09.936Z,25.10
2022-11-29T00:14:40.231Z,78.45
2022-11-29T00:17:10.202Z,54.55
2022-11-29T00:19:40.739Z,24.33
2022-11-29T00:22:10.600Z,22.05
2022-11-29T00:24:40.453Z,16.05
2022-11-29T00:27:12.999Z,22.65
2022-11-29T00:29:42.939Z,25.85
2022-11-29T00:32:12.821Z,22.70
2022-11-29T00:34:42.965Z,21.15
2022-11-29T00:37:13.034Z,26.65
2022-11-29T00:39:43.515Z,22.55
2022-11-29T00:42:16.033Z,18.08
2022-11-29T00:44:46.086Z,15.68
2022-11-29T00:47:16.102Z,26.45
2022-11-29T00:49:45.949Z,20.20
2022-11-29T00:52:15.850Z,26.38
2022-11-29T00:54:46.040Z,27.08
2022-11-29T00:57:18.721Z,23.10
2022-11-29T00:59:48.574Z,46.15
2022-11-29T01:02:19.152Z,29.95
2022-11-29T01:04:49.100Z,23.73
2022-11-29T01:07:19.042Z,19.77
2022-11-29T01:09:48.995Z,25.08
2022-11-29T01:12:21.546Z,20.98
2022-11-29T01:14:51.394Z,21.27
2022-11-29T01:17:21.300Z,17.90
2022-11-29T01:19:51.292Z,21.88
2022-11-29T01:22:21.299Z,31.10
2022-11-29T01:24:51.412Z,25.08
2022-11-29T01:27:23.915Z,20.10
2022-11-29T01:29:54.144Z,17.92
2022-11-29T01:32:23.984Z,17.00
2022-11-29T01:34:53.847Z,20.23
2022-11-29T01:37:23.692Z,23.48
2022-11-29T01:39:53.636Z,22.58
2022-11-29T01:42:26.099Z,22.17
2022-11-29T01:45:30.915Z,21.23
2022-11-29T01:48:01.417Z,20.73
2022-11-29T01:50:31.382Z,25.52
2022-11-29T01:53:01.701Z,21.48
2022-11-29T01:55:31.685Z,25.60
2022-11-29T01:58:04.474Z,25.10
2022-11-29T02:00:34.434Z,18.48
2022-11-29T02:03:07.103Z,21.17
2022-11-29T02:05:37.198Z,21.10
2022-11-29T02:08:07.254Z,19.25
2022-11-29T02:10:46.542Z,20.55
2022-11-29T02:15:56.182Z,9.77
2022-11-29T02:18:35.172Z,20.17
2022-11-29T02:21:42.171Z,21.48
2022-11-29T02:24:44.755Z,21.05
2022-11-29T02:27:28.928Z,16.65
2022-11-29T02:30:24.943Z,22.33
2022-11-29T02:33:23.453Z,18.58
2022-11-29T02:36:19.132Z,20.70
2022-11-29T02:39:18.821Z,20.63
2022-11-29T02:41:59.631Z,21.30
2022-11-29T02:44:59.470Z,20.45
2022-11-29T02:47:35.136Z,17.77
2022-11-29T02:50:35.037Z,84.13
2022-11-29T02:53:10.810Z,31.73
2022-11-29T02:55:45.754Z,19.60
2022-11-29T02:58:21.927Z,13.60
2022-11-29T03:00:58.720Z,23.30
2022-11-29T03:03:33.715Z,19.27
2022-11-29T03:06:14.614Z,18.17
2022-11-29T03:08:50.652Z,23.90
2022-11-29T03:11:27.280Z,18.75
2022-11-29T03:14:09.353Z,17.40
2022-11-29T03:16:43.452Z,18.60
2022-11-29T03:19:30.311Z,18.55
2022-11-29T03:22:13.997Z,16.98
2022-11-29T03:24:48.615Z,17.23
2022-11-29T03:27:22.172Z,15.05
2022-11-29T03:29:55.002Z,17.95
2022-11-29T03:32:31.263Z,12.60
2022-11-29T03:35:07.423Z,18.17
2022-11-29T03:37:47.263Z,15.30
2022-11-29T03:40:20.286Z,16.83
2022-11-29T03:42:54.622Z,17.27
2022-11-29T03:45:28.418Z,18.40
2022-11-29T03:48:02.968Z,18.98
2022-11-29T03:50:37.715Z,44.05
2022-11-29T03:53:17.904Z,18.98
2022-11-29T03:55:56.934Z,16.13
2022-11-29T03:58:42.427Z,14.70
2022-11-29T04:01:44.919Z,14.68
2022-11-29T04:04:44.341Z,17.08
2022-11-29T04:07:31.382Z,18.48
2022-11-29T04:10:19.959Z,16.10
2022-11-29T04:13:08.594Z,13.73
2022-11-29T04:15:58.653Z,15.77
2022-11-29T04:18:58.073Z,13.07
2022-11-29T04:21:37.647Z,17.35
2022-11-29T04:24:37.395Z,18.25
2022-11-29T04:27:42.028Z,17.25
2022-11-29T04:30:22.211Z,20.92
2022-11-29T04:33:22.624Z,10.35
2022-11-29T04:36:19.295Z,17.30
2022-11-29T04:39:10.861Z,18.63
2022-11-29T04:42:05.505Z,11.95
2022-11-29T04:44:50.293Z,19.05
2022-11-29T04:47:47.065Z,48.15
2022-11-29T04:50:26.810Z,15.60
2022-11-29T04:53:21.782Z,10.07
2022-11-29T04:55:57.623Z,30.00
2022-11-29T04:58:33.170Z,24.88
2022-11-29T05:01:10.651Z,18.23
2022-11-29T05:03:46.781Z,20.40
2022-11-29T05:06:23.282Z,19.60
2022-11-29T05:08:59.315Z,16.88
2022-11-29T05:11:46.418Z,20.48
2022-11-29T05:14:22.956Z,22.42
2022-11-29T05:16:57.653Z,16.85
2022-11-29T05:19:39.984Z,16.00
2022-11-29T05:22:23.037Z,14.88
2022-11-29T05:24:58.476Z,14.85
2022-11-29T05:27:41.170Z,24.63
2022-11-29T05:30:14.746Z,15.73
2022-11-29T05:32:58.668Z,21.05
2022-11-29T05:35:52.278Z,17.08
2022-11-29T05:38:40.961Z,24.88
2022-11-29T05:41:20.875Z,17.70
2022-11-29T05:43:59.244Z,23.65
2022-11-29T05:46:34.076Z,41.47
2022-11-29T05:49:13.738Z,16.33
2022-11-29T05:51:47.661Z,24.60
2022-11-29T05:54:28.791Z,19.88
2022-11-29T05:57:06.252Z,17.38
2022-11-29T05:59:38.400Z,29.67
2022-11-29T06:02:15.517Z,22.33
2022-11-29T06:05:00.643Z,23.00
2022-11-29T06:07:35.468Z,24.90
2022-11-29T06:10:08.231Z,26.25
2022-11-29T06:12:38.817Z,25.05
2022-11-29T06:15:37.281Z,25.77
2022-11-29T06:18:26.265Z,21.13
2022-11-29T06:21:05.542Z,20.27
2022-11-29T06:24:00.367Z,33.97
2022-11-29T06:26:45.269Z,26.17
2022-11-29T06:29:27.020Z,27.13
2022-11-29T06:32:03.460Z,27.92
2022-11-29T06:34:40.625Z,35.15
2022-11-29T06:37:18.747Z,25.50
2022-11-29T06:39:49.218Z,25.80
2022-11-29T06:42:19.207Z,26.45
2022-11-29T06:44:49.852Z,30.88
2022-11-29T06:47:26.610Z,22.50
2022-11-29T06:50:00.924Z,20.23
2022-11-29T06:52:40.779Z,20.55
2022-11-29T06:55:17.299Z,18.55
2022-11-29T06:57:58.242Z,17.98
2022-11-29T07:00:30.004Z,21.95
2022-11-29T07:03:25.980Z,19.42
2022-11-29T07:05:56.696Z,19.10
2022-11-29T07:08:29.982Z,23.00
2022-11-29T07:11:00.907Z,17.90
2022-11-29T07:13:31.596Z,20.15
2022-11-29T07:16:07.636Z,17.80
2022-11-29T07:18:44.802Z,18.77
2022-11-29T07:21:19.986Z,18.40
2022-11-29T07:24:00.164Z,23.35
2022-11-29T07:26:36.203Z,23.08
2022-11-29T07:29:14.446Z,17.92
2022-11-29T07:31:51.709Z,21.13
2022-11-29T07:34:26.428Z,26.00
2022-11-29T07:37:03.252Z,25.42
2022-11-29T07:39:44.877Z,21.63
2022-11-29T07:42:20.963Z,21.48
2022-11-29T07:45:01.597Z,25.13
2022-11-29T07:47:35.777Z,19.35
2022-11-29T07:50:06.324Z,23.92
2022-11-29T07:52:36.705Z,26.27
2022-11-29T07:55:13.247Z,24.10
2022-11-29T07:57:47.123Z,32.80
2022-11-29T08:00:18.592Z,32.63
2022-11-29T08:02:49.875Z,30.45
2022-11-29T08:05:19.996Z,28.25
2022-11-29T08:07:50.390Z,26.08
2022-11-29T08:10:22.965Z,26.02
2022-11-29T08:12:54.431Z,185.32
2022-11-29T08:15:26.061Z,316.55
2022-11-29T08:17:56.168Z,51.38
2022-11-29T08:20:26.172Z,27.85
2022-11-29T08:22:59.250Z,27.92
2022-11-29T08:25:32.220Z,24.45
2022-11-29T08:28:02.110Z,24.38
2022-11-29T08:30:32.149Z,15.35
2022-11-29T08:33:02.173Z,26.15
2022-11-29T08:35:32.256Z,34.13
2022-11-29T08:38:03.931Z,35.83
2022-11-29T08:40:36.614Z,36.45
2022-11-29T08:43:06.664Z,22.10
2022-11-29T08:45:36.725Z,23.27
2022-11-29T08:48:06.994Z,22.33
2022-11-29T08:50:37.037Z,25.30
2022-11-29T08:53:28.044Z,103.70
2022-11-29T08:56:17.121Z,38.15
2022-11-29T08:58:52.445Z,20.23
2022-11-29T09:01:22.862Z,24.95
2022-11-29T09:04:08.002Z,21.05
2022-11-29T09:06:44.657Z,24.10
2022-11-29T09:09:14.468Z,20.25
2022-11-29T09:11:49.560Z,22.00
2022-11-29T09:14:22.304Z,16.23
2022-11-29T09:16:52.254Z,21.35
2022-11-29T09:19:22.336Z,24.42
2022-11-29T09:21:52.244Z,20.00
2022-11-29T09:24:22.112Z,27.48
2022-11-29T09:26:54.592Z,24.63
2022-11-29T09:29:24.628Z,22.85
2022-11-29T09:31:54.947Z,20.45
2022-11-29T09:34:25.034Z,21.00
2022-11-29T09:36:54.969Z,19.85
2022-11-29T09:39:24.826Z,19.60
2022-11-29T09:42:15.684Z,18.75
2022-11-29T09:44:54.788Z,22.80
2022-11-29T09:47:39.118Z,25.92
2022-11-29T09:50:24.562Z,21.48
2022-11-29T09:52:58.706Z,22.77
2022-11-29T09:55:39.913Z,22.00
2022-11-29T09:58:15.115Z,19.40
2022-11-29T10:00:49.414Z,23.85
2022-11-29T10:03:25.503Z,28.15
2022-11-29T10:06:00.420Z,33.50
2022-11-29T10:08:35.438Z,28.70
2022-11-29T10:11:17.837Z,20.75
2022-11-29T10:13:54.716Z,25.73
2022-11-29T10:16:28.437Z,29.30
2022-11-29T10:19:03.348Z,26.73
2022-11-29T10:21:37.156Z,24.17
2022-11-29T10:24:10.270Z,20.58
2022-11-29T10:26:40.803Z,24.50
2022-11-29T10:29:16.414Z,25.80
2022-11-29T10:31:49.539Z,22.30
2022-11-29T10:34:21.054Z,20.33
2022-11-29T10:36:53.190Z,17.17
2022-11-29T10:39:26.299Z,19.30
2022-11-29T10:41:58.705Z,28.58
2022-11-29T10:44:32.036Z,18.20
2022-11-29T10:47:07.828Z,20.05
2022-11-29T10:49:41.113Z,20.63
2022-11-29T10:52:20.724Z,17.88
2022-11-29T10:54:51.470Z,19.20
2022-11-29T10:57:24.073Z,17.33
2022-11-29T11:00:09.964Z,15.55
2022-11-29T11:02:40.274Z,17.58
2022-11-29T11:05:18.962Z,17.45
2022-11-29T11:07:49.067Z,19.83
2022-11-29T11:10:26.525Z,16.88
2022-11-29T11:13:05.619Z,26.88
2022-11-29T11:15:38.660Z,25.55
2022-11-29T11:18:10.198Z,21.55
2022-11-29T11:20:44.420Z,20.27
2022-11-29T11:23:27.520Z,16.85
2022-11-29T11:26:02.507Z,20.45
2022-11-29T11:28:34.697Z,30.98
2022-11-29T11:31:09.655Z,23.73
2022-11-29T11:33:41.185Z,30.00
2022-11-29T11:36:14.635Z,22.70
2022-11-29T11:38:52.909Z,15.30
2022-11-29T11:41:46.039Z,14.63
2022-11-29T11:44:47.584Z,15.40
2022-11-29T11:47:22.512Z,17.85
2022-11-29T11:49:53.673Z,44.10
2022-11-29T11:52:25.869Z,30.00
2022-11-29T11:54:58.534Z,17.08
2022-11-29T11:57:29.720Z,21.05
2022-11-29T12:00:06.606Z,23.00
2022-11-29T12:02:44.061Z,21.05
2022-11-29T12:05:16.411Z,18.70
2022-11-29T12:10:40.944Z,17.38
2022-11-29T12:13:20.558Z,26.23
2022-11-29T12:15:52.850Z,21.92
2022-11-29T12:18:30.957Z,39.88
2022-11-29T12:21:06.735Z,28.48
2022-11-29T12:23:44.383Z,27.58
2022-11-29T12:26:41.116Z,21.02
2022-11-29T12:29:13.964Z,18.35
2022-11-29T12:31:55.575Z,19.58
2022-11-29T12:34:43.126Z,19.42
2022-11-29T12:37:18.121Z,19.83
2022-11-29T12:40:00.162Z,13.90
2022-11-29T12:42:39.557Z,21.58
2022-11-29T12:45:33.427Z,19.10
2022-11-29T12:48:10.945Z,19.83
2022-11-29T12:50:53.865Z,19.17
2022-11-29T12:53:33.296Z,21.77
2022-11-29T12:56:13.754Z,37.53
2022-11-29T12:58:54.189Z,25.42
2022-11-29T13:01:31.099Z,20.05
2022-11-29T13:04:05.152Z,13.63
2022-11-29T13:06:44.732Z,19.08
2022-11-29T13:09:52.933Z,18.75
2022-11-29T13:12:25.074Z,19.90
2022-11-29T13:14:59.059Z,28.52
2022-11-29T13:17:35.898Z,18.10
2022-11-29T13:20:12.467Z,49.83
2022-11-29T13:22:48.286Z,30.35
2022-11-29T13:25:19.869Z,16.55
2022-11-29T13:27:58.509Z,17.45
2022-11-29T13:30:28.956Z,19.52
2022-11-29T13:33:02.972Z,20.35
2022-11-29T13:35:38.969Z,17.17
2022-11-29T13:38:17.864Z,18.08
2022-11-29T13:40:55.225Z,18.48
2022-11-29T13:43:30.756Z,19.52
2022-11-29T13:46:08.324Z,14.95
2022-11-29T13:48:40.523Z,18.27
2022-11-29T13:51:26.941Z,17.10
2022-11-29T13:54:01.228Z,19.70
2022-11-29T13:56:36.609Z,21.73
2022-11-29T13:59:11.663Z,19.15
2022-11-29T14:01:49.226Z,16.48
2022-11-29T14:04:39.011Z,20.42
2022-11-29T14:07:14.734Z,15.35
2022-11-29T14:09:59.894Z,20.38
2022-11-29T14:12:39.606Z,17.05
2022-11-29T14:15:21.311Z,17.45
2022-11-29T14:17:54.194Z,21.55
2022-11-29T14:20:47.806Z,20.02
2022-11-29T14:23:19.258Z,22.67
2022-11-29T14:26:21.490Z,25.08
2022-11-29T14:28:56.283Z,21.67
2022-11-29T14:31:56.718Z,29.80
2022-11-29T14:34:51.247Z,20.88
2022-11-29T14:37:37.885Z,19.98
2022-11-29T14:40:21.292Z,17.67
2022-11-29T14:42:52.876Z,18.73
2022-11-29T14:45:31.202Z,25.85
2022-11-29T14:48:01.846Z,19.50
2022-11-29T14:50:35.022Z,29.58
2022-11-29T14:53:05.728Z,27.85
2022-11-29T14:55:38.400Z,20.17
2022-11-29T14:58:23.219Z,58.60
2022-11-29T15:01:16.335Z,57.08
2022-11-29T15:03:50.568Z,33.90
2022-11-29T15:06:26.957Z,34.85
2022-11-29T15:09:04.516Z,21.38
2022-11-29T15:11:50.931Z,24.48
2022-11-29T15:14:25.758Z,23.35
2022-11-29T15:17:05.674Z,40.25
2022-11-29T15:19:56.152Z,30.63
2022-11-29T15:22:29.056Z,21.73
2022-11-29T15:25:02.781Z,41.03
2022-11-29T15:27:35.148Z,46.55
2022-11-29T15:30:21.927Z,20.95
2022-11-29T15:32:54.408Z,23.13
2022-11-29T15:35:24.428Z,32.00
2022-11-29T15:37:54.916Z,28.85
2022-11-29T15:40:29.165Z,22.38
2022-11-29T15:43:05.204Z,19.50
2022-11-29T15:45:36.856Z,16.30
2022-11-29T15:48:19.370Z,16.70
2022-11-29T15:50:55.480Z,15.95
2022-11-29T15:53:29.404Z,15.13
2022-11-29T15:56:00.134Z,19.05
2022-11-29T15:58:31.313Z,23.70
2022-11-29T16:01:01.489Z,32.45
2022-11-29T16:03:36.406Z,24.20
2022-11-29T16:06:11.873Z,19.00
2022-11-29T16:08:44.639Z,20.75
2022-11-29T16:11:18.309Z,28.63
2022-11-29T16:14:16.862Z,39.95
2022-11-29T16:16:48.942Z,25.15
2022-11-29T16:19:29.116Z,18.13
2022-11-29T16:22:03.870Z,23.77
2022-11-29T16:24:37.031Z,29.70
2022-11-29T16:27:08.046Z,38.15
2022-11-29T16:29:39.972Z,33.75
2022-11-29T16:32:17.788Z,46.45
2022-11-29T16:34:50.311Z,36.47
2022-11-29T16:37:23.175Z,33.53
2022-11-29T16:39:54.521Z,30.40
2022-11-29T16:42:26.808Z,29.13
2022-11-29T16:44:59.872Z,30.77
2022-11-29T16:47:30.787Z,29.23
2022-11-29T16:50:16.598Z,19.40
2022-11-29T16:52:47.542Z,19.40
2022-11-29T16:55:19.064Z,20.27
2022-11-29T16:57:50.282Z,15.90
2022-11-29T17:00:27.882Z,22.33
2022-11-29T17:02:57.828Z,26.00
2022-11-29T17:05:30.344Z,21.40
2022-11-29T17:08:00.326Z,21.60
2022-11-29T17:10:30.264Z,29.75
2022-11-29T17:13:01.583Z,32.78
2022-11-29T17:15:31.424Z,32.00
2022-11-29T17:18:01.288Z,26.17
2022-11-29T17:20:34.018Z,35.17
2022-11-29T17:23:03.928Z,42.28
2022-11-29T17:25:33.772Z,79.53
2022-11-29T17:28:03.588Z,75.22
2022-11-29T17:30:33.518Z,75.53
2022-11-29T17:33:03.374Z,64.07
2022-11-29T17:35:37.922Z,39.88
2022-11-29T17:38:07.816Z,29.35
2022-11-29T17:40:37.719Z,34.33
2022-11-29T17:43:07.562Z,42.65
2022-11-29T17:45:37.574Z,43.20
2022-11-29T17:48:07.880Z,29.80
2022-11-29T17:50:40.545Z,24.40
2022-11-29T17:53:10.527Z,34.85
2022-11-29T17:55:40.447Z,26.17
2022-11-29T17:58:10.313Z,24.95
2022-11-29T18:00:40.235Z,28.30
2022-11-29T18:03:10.139Z,113.18
2022-11-29T18:05:42.605Z,84.53
2022-11-29T18:08:12.532Z,157.75
2022-11-29T18:10:42.410Z,151.57
2022-11-29T18:13:12.358Z,136.23
2022-11-29T18:15:42.559Z,141.65
2022-11-29T18:18:12.391Z,78.07
2022-11-29T18:20:44.924Z,64.53
2022-11-29T18:23:14.788Z,58.05
2022-11-29T18:25:44.652Z,31.27
2022-11-29T18:28:14.757Z,25.13
2022-11-29T18:30:44.747Z,27.45
2022-11-29T18:33:14.680Z,22.52
2022-11-29T18:35:47.221Z,23.25
2022-11-29T18:38:17.262Z,22.17
2022-11-29T18:40:48.416Z,17.20
2022-11-29T18:43:19.668Z,21.92
2022-11-29T18:45:49.817Z,25.77
2022-11-29T18:48:19.812Z,14.25
2022-11-29T18:50:52.320Z,18.48
2022-11-29T18:53:22.337Z,16.52
2022-11-29T18:56:02.669Z,17.10
2022-11-29T18:58:32.926Z,14.20
2022-11-29T19:01:07.287Z,14.85
2022-11-29T19:03:39.147Z,17.00
2022-11-29T19:06:13.239Z,21.05
2022-11-29T19:08:43.551Z,19.85
2022-11-29T19:11:14.945Z,19.67
2022-11-29T19:13:44.972Z,22.08
2022-11-29T19:16:17.909Z,20.80
2022-11-29T19:18:48.399Z,29.55
2022-11-29T19:21:22.732Z,32.92
2022-11-29T19:23:54.980Z,24.45
2022-11-29T19:26:26.742Z,18.15
2022-11-29T19:28:56.968Z,20.20
2022-11-29T19:31:27.691Z,77.78
2022-11-29T19:33:58.307Z,172.82
2022-11-29T19:36:32.737Z,59.20
2022-11-29T19:39:03.570Z,23.75
2022-11-29T19:41:34.806Z,24.20
2022-11-29T19:44:06.076Z,17.33
2022-11-29T19:46:37.666Z,17.52
2022-11-29T19:49:09.007Z,19.38
2022-11-29T19:51:41.525Z,19.77
2022-11-29T19:54:12.981Z,16.30
2022-11-29T19:56:43.159Z,14.63
2022-11-29T19:59:13.125Z,18.08
2022-11-29T20:01:43.377Z,56.78
2022-11-29T20:04:16.829Z,42.15
2022-11-29T20:06:51.629Z,29.63
2022-11-29T20:09:21.952Z,17.13
2022-11-29T20:11:51.887Z,12.98
2022-11-29T20:14:21.821Z,10.95
2022-11-29T20:16:51.791Z,17.65
2022-11-29T20:19:21.653Z,19.38
2022-11-29T20:21:54.141Z,20.08
2022-11-29T20:24:24.065Z,32.22
2022-11-29T20:26:53.942Z,23.00
2022-11-29T20:29:27.284Z,18.75
2022-11-29T20:31:57.180Z,88.63
2022-11-29T20:34:27.852Z,115.93
2022-11-29T20:37:13.014Z,107.72
2022-11-29T20:39:47.271Z,228.73
2022-11-29T20:42:47.596Z,42.13
2022-11-29T20:45:18.893Z,30.33
2022-11-29T20:47:53.900Z,34.10
2022-11-29T20:50:25.656Z,24.65
2022-11-29T20:53:10.197Z,38.28
2022-11-29T20:55:46.445Z,49.08
2022-11-29T20:58:19.480Z,31.08
2022-11-29T21:00:49.476Z,30.88
2022-11-29T21:03:20.566Z,35.25
2022-11-29T21:05:50.899Z,37.65
2022-11-29T21:08:24.720Z,31.33
2022-11-29T21:10:55.124Z,24.65
2022-11-29T21:13:26.524Z,28.38
2022-11-29T21:15:57.422Z,29.60
2022-11-29T21:18:30.421Z,47.88
2022-11-29T21:21:08.146Z,72.35
2022-11-29T21:23:48.558Z,105.03
2022-11-29T21:26:20.380Z,69.47
2022-11-29T21:28:58.810Z,59.95
2022-11-29T21:31:29.496Z,68.03
2022-11-29T21:34:00.027Z,89.97
2022-11-29T21:36:30.099Z,88.30
2022-11-29T21:39:05.267Z,130.18
2022-11-29T21:41:36.439Z,146.38
2022-11-29T21:44:07.739Z,150.88
2022-11-29T21:46:38.326Z,105.22
2022-11-29T21:49:08.457Z,84.88
2022-11-29T21:51:38.382Z,90.82
2022-11-29T21:54:10.908Z,75.82
2022-11-29T21:56:40.799Z,91.75
2022-11-29T21:59:10.767Z,215.07
2022-11-29T22:01:40.814Z,217.45
2022-11-29T22:04:10.919Z,136.40
2022-11-29T22:06:41.042Z,59.47
2022-11-29T22:09:14.010Z,61.08
2022-11-29T22:11:43.971Z,36.72
2022-11-29T22:14:18.971Z,50.03
2022-11-29T22:16:50.808Z,47.88
2022-11-29T22:19:23.052Z,50.20
2022-11-29T22:21:54.048Z,40.47
2022-11-29T22:24:28.354Z,41.97
2022-11-29T22:26:58.868Z,42.80
2022-11-29T22:29:29.039Z,43.17
2022-11-29T22:32:01.323Z,66.68
2022-11-29T22:34:31.524Z,75.70
2022-11-29T22:37:01.635Z,83.57
2022-11-29T22:39:34.076Z,121.05
2022-11-29T22:42:04.028Z,119.78
2022-11-29T22:44:34.106Z,99.97
2022-11-29T22:47:04.038Z,100.55
2022-11-29T22:49:33.985Z,89.07
2022-11-29T22:52:03.833Z,72.90
2022-11-29T22:54:36.437Z,88.93
2022-11-29T22:57:06.468Z,86.30
2022-11-29T22:59:36.466Z,93.22
2022-11-29T23:02:06.359Z,142.48
2022-11-29T23:04:36.265Z,66.93
2022-11-29T23:07:06.202Z,69.20
2022-11-29T23:09:38.666Z,123.05
2022-11-29T23:12:09.199Z,96.80
2022-11-29T23:14:39.117Z,75.20
2022-11-29T23:17:09.080Z,75.60
2022-11-29T23:19:38.959Z,97.68
2022-11-29T23:22:08.745Z,196.77
2022-11-29T23:24:42.767Z,231.90
2022-11-29T23:27:12.710Z,279.33
2022-11-29T23:29:42.624Z,244.73
2022-11-29T23:32:12.476Z,244.10
2022-11-29T23:34:42.419Z,136.02
2022-11-29T23:37:12.323Z,146.05
2022-11-29T23:39:44.800Z,268.55
2022-11-29T23:42:14.679Z,233.60
2022-11-29T23:44:44.861Z,197.20
2022-11-29T23:47:16.331Z,201.20
2022-11-29T23:49:46.250Z,145.45
2022-11-29T23:52:16.193Z,93.68
2022-11-29T23:54:48.895Z,128.73
2022-11-29T23:57:19.024Z,123.05
2022-11-29T23:59:50.200Z,267.30
